sensor_id;sensor_type;location;lat;lon;timestamp;pressure;altitude;pressure_sealevel;temperature;humidity
42591;BME280;28218;53.342;-6.216;2023-05-08T00:02:15;101221.34;;;15.94;100.00
42591;BME280;28218;53.342;-6.216;2023-05-08T00:04:43;101220.38;;;15.95;100.00
42591;BME280;28218;53.342;-6.216;2023-05-08T00:07:11;101219.97;;;15.98;100.00
42591;BME280;28218;53.342;-6.216;2023-05-08T00:09:39;101222.25;;;16.01;100.00
42591;BME280;28218;53.342;-6.216;2023-05-08T00:12:08;101215.72;;;16.04;100.00
42591;BME280;28218;53.342;-6.216;2023-05-08T00:14:37;101204.34;;;16.10;100.00
42591;BME280;28218;53.342;-6.216;2023-05-08T00:17:05;101202.28;;;16.12;100.00
42591;BME280;28218;53.342;-6.216;2023-05-08T00:19:34;101198.63;;;16.13;100.00
42591;BME280;28218;53.342;-6.216;2023-05-08T00:22:02;101195.78;;;16.15;100.00
42591;BME280;28218;53.342;-6.216;2023-05-08T00:24:30;101192.47;;;16.13;100.00
42591;BME280;28218;53.342;-6.216;2023-05-08T00:26:58;101191.19;;;16.02;100.00
42591;BME280;28218;53.342;-6.216;2023-05-08T00:29:27;101186.81;;;15.94;100.00
42591;BME280;28218;53.342;-6.216;2023-05-08T00:31:56;101192.13;;;15.94;100.00
42591;BME280;28218;53.342;-6.216;2023-05-08T00:34:24;101194.75;;;15.88;100.00
42591;BME280;28218;53.342;-6.216;2023-05-08T00:36:55;101188.59;;;15.87;100.00
42591;BME280;28218;53.342;-6.216;2023-05-08T00:39:23;101194.03;;;15.79;100.00
42591;BME280;28218;53.342;-6.216;2023-05-08T00:41:51;101194.63;;;15.74;100.00
42591;BME280;28218;53.342;-6.216;2023-05-08T00:44:19;101188.47;;;15.74;100.00
42591;BME280;28218;53.342;-6.216;2023-05-08T00:46:48;101190.69;;;15.70;100.00
42591;BME280;28218;53.342;-6.216;2023-05-08T00:49:18;101186.69;;;15.59;100.00
42591;BME280;28218;53.342;-6.216;2023-05-08T00:51:49;101176.44;;;15.56;100.00
42591;BME280;28218;53.342;-6.216;2023-05-08T00:54:18;101180.66;;;15.51;100.00
42591;BME280;28218;53.342;-6.216;2023-05-08T00:56:48;101168.28;;;15.58;100.00
42591;BME280;28218;53.342;-6.216;2023-05-08T00:59:20;101185.31;;;15.64;100.00
42591;BME280;28218;53.342;-6.216;2023-05-08T01:01:49;101181.09;;;15.69;100.00
42591;BME280;28218;53.342;-6.216;2023-05-08T01:04:23;101179.66;;;15.67;100.00
42591;BME280;28218;53.342;-6.216;2023-05-08T01:06:52;101177.84;;;15.74;100.00
42591;BME280;28218;53.342;-6.216;2023-05-08T01:09:20;101170.91;;;15.73;100.00
42591;BME280;28218;53.342;-6.216;2023-05-08T01:11:55;101163.75;;;15.73;100.00
42591;BME280;28218;53.342;-6.216;2023-05-08T01:14:31;101164.81;;;15.79;100.00
42591;BME280;28218;53.342;-6.216;2023-05-08T01:17:08;101159.88;;;15.76;100.00
42591;BME280;28218;53.342;-6.216;2023-05-08T01:20:04;101142.69;;;15.72;100.00
42591;BME280;28218;53.342;-6.216;2023-05-08T01:22:59;101143.69;;;15.71;100.00
42591;BME280;28218;53.342;-6.216;2023-05-08T01:28:53;101155.13;;;15.71;100.00
42591;BME280;28218;53.342;-6.216;2023-05-08T01:31:38;101156.16;;;15.70;100.00
42591;BME280;28218;53.342;-6.216;2023-05-08T01:34:15;101155.34;;;15.70;100.00
42591;BME280;28218;53.342;-6.216;2023-05-08T01:36:50;101144.19;;;15.59;100.00
42591;BME280;28218;53.342;-6.216;2023-05-08T01:39:24;101152.53;;;15.56;100.00
42591;BME280;28218;53.342;-6.216;2023-05-08T01:42:01;101152.34;;;15.58;100.00
42591;BME280;28218;53.342;-6.216;2023-05-08T01:44:35;101133.50;;;15.53;100.00
42591;BME280;28218;53.342;-6.216;2023-05-08T01:47:06;101133.44;;;15.46;100.00
42591;BME280;28218;53.342;-6.216;2023-05-08T01:49:40;101135.22;;;15.39;100.00
42591;BME280;28218;53.342;-6.216;2023-05-08T01:52:13;101128.44;;;15.37;100.00
42591;BME280;28218;53.342;-6.216;2023-05-08T01:54:52;101131.78;;;15.24;100.00
42591;BME280;28218;53.342;-6.216;2023-05-08T01:57:26;101132.78;;;15.23;100.00
42591;BME280;28218;53.342;-6.216;2023-05-08T01:59:56;101138.09;;;15.23;100.00
42591;BME280;28218;53.342;-6.216;2023-05-08T02:02:27;101128.94;;;15.25;100.00
42591;BME280;28218;53.342;-6.216;2023-05-08T02:04:57;101135.66;;;15.21;100.00
42591;BME280;28218;53.342;-6.216;2023-05-08T02:07:27;101140.13;;;15.21;100.00
42591;BME280;28218;53.342;-6.216;2023-05-08T02:09:57;101140.50;;;15.18;100.00
42591;BME280;28218;53.342;-6.216;2023-05-08T02:12:25;101143.16;;;15.18;100.00
42591;BME280;28218;53.342;-6.216;2023-05-08T02:14:55;101128.31;;;15.23;100.00
42591;BME280;28218;53.342;-6.216;2023-05-08T02:17:24;101137.53;;;15.27;100.00
42591;BME280;28218;53.342;-6.216;2023-05-08T02:19:54;101123.81;;;15.24;100.00
42591;BME280;28218;53.342;-6.216;2023-05-08T02:22:25;101133.63;;;15.23;100.00
42591;BME280;28218;53.342;-6.216;2023-05-08T02:24:56;101118.59;;;15.30;100.00
42591;BME280;28218;53.342;-6.216;2023-05-08T02:27:27;101119.41;;;15.31;100.00
42591;BME280;28218;53.342;-6.216;2023-05-08T02:29:56;101119.16;;;15.26;100.00
42591;BME280;28218;53.342;-6.216;2023-05-08T02:32:26;101114.91;;;15.31;100.00
42591;BME280;28218;53.342;-6.216;2023-05-08T02:34:57;101108.97;;;15.29;100.00
42591;BME280;28218;53.342;-6.216;2023-05-08T02:37:31;101114.59;;;15.20;100.00
42591;BME280;28218;53.342;-6.216;2023-05-08T02:40:03;101113.59;;;15.21;100.00
42591;BME280;28218;53.342;-6.216;2023-05-08T02:42:33;101104.41;;;15.23;100.00
42591;BME280;28218;53.342;-6.216;2023-05-08T02:45:02;101104.16;;;15.18;100.00
42591;BME280;28218;53.342;-6.216;2023-05-08T02:47:38;101116.63;;;15.18;100.00
42591;BME280;28218;53.342;-6.216;2023-05-08T02:50:15;101110.13;;;15.20;100.00
42591;BME280;28218;53.342;-6.216;2023-05-08T02:52:48;101092.81;;;15.24;100.00
42591;BME280;28218;53.342;-6.216;2023-05-08T02:55:28;101094.81;;;15.22;100.00
42591;BME280;28218;53.342;-6.216;2023-05-08T02:58:07;101094.88;;;15.29;100.00
42591;BME280;28218;53.342;-6.216;2023-05-08T03:00:41;101101.63;;;15.31;100.00
42591;BME280;28218;53.342;-6.216;2023-05-08T03:03:16;101104.09;;;15.33;100.00
42591;BME280;28218;53.342;-6.216;2023-05-08T03:05:50;101097.97;;;15.32;100.00
42591;BME280;28218;53.342;-6.216;2023-05-08T03:08:25;101100.06;;;15.37;100.00
42591;BME280;28218;53.342;-6.216;2023-05-08T03:10:57;101096.22;;;15.40;100.00
42591;BME280;28218;53.342;-6.216;2023-05-08T03:13:28;101094.00;;;15.43;100.00
42591;BME280;28218;53.342;-6.216;2023-05-08T03:15:59;101111.75;;;15.43;100.00
42591;BME280;28218;53.342;-6.216;2023-05-08T03:18:32;101096.38;;;15.38;100.00
42591;BME280;28218;53.342;-6.216;2023-05-08T03:21:02;101086.78;;;15.37;100.00
42591;BME280;28218;53.342;-6.216;2023-05-08T03:23:36;101099.22;;;15.37;100.00
42591;BME280;28218;53.342;-6.216;2023-05-08T03:26:06;101088.00;;;15.34;100.00
42591;BME280;28218;53.342;-6.216;2023-05-08T03:28:36;101083.88;;;15.32;100.00
42591;BME280;28218;53.342;-6.216;2023-05-08T03:31:06;101083.25;;;15.30;100.00
42591;BME280;28218;53.342;-6.216;2023-05-08T03:33:37;101090.41;;;15.29;100.00
42591;BME280;28218;53.342;-6.216;2023-05-08T03:36:05;101084.25;;;15.29;100.00
42591;BME280;28218;53.342;-6.216;2023-05-08T03:38:35;101078.56;;;15.32;100.00
42591;BME280;28218;53.342;-6.216;2023-05-08T03:41:05;101081.88;;;15.34;100.00
42591;BME280;28218;53.342;-6.216;2023-05-08T03:43:35;101070.47;;;15.40;100.00
42591;BME280;28218;53.342;-6.216;2023-05-08T03:46:04;101064.16;;;15.41;100.00
42591;BME280;28218;53.342;-6.216;2023-05-08T03:48:33;101068.06;;;15.45;100.00
42591;BME280;28218;53.342;-6.216;2023-05-08T03:51:02;101057.31;;;15.53;100.00
42591;BME280;28218;53.342;-6.216;2023-05-08T03:53:32;101055.47;;;15.54;100.00
42591;BME280;28218;53.342;-6.216;2023-05-08T03:56:02;101051.44;;;15.58;100.00
42591;BME280;28218;53.342;-6.216;2023-05-08T03:58:33;101050.19;;;15.60;100.00
42591;BME280;28218;53.342;-6.216;2023-05-08T04:01:07;101057.81;;;15.64;100.00
42591;BME280;28218;53.342;-6.216;2023-05-08T04:03:49;101051.66;;;15.63;100.00
42591;BME280;28218;53.342;-6.216;2023-05-08T04:06:24;101048.19;;;15.63;100.00
42591;BME280;28218;53.342;-6.216;2023-05-08T04:09:13;101049.84;;;15.64;100.00
42591;BME280;28218;53.342;-6.216;2023-05-08T04:11:59;101052.31;;;15.65;100.00
42591;BME280;28218;53.342;-6.216;2023-05-08T04:14:32;101053.13;;;15.66;100.00
42591;BME280;28218;53.342;-6.216;2023-05-08T04:17:05;101065.78;;;15.64;100.00
42591;BME280;28218;53.342;-6.216;2023-05-08T04:19:38;101056.81;;;15.65;100.00
42591;BME280;28218;53.342;-6.216;2023-05-08T04:22:11;101052.31;;;15.65;100.00
42591;BME280;28218;53.342;-6.216;2023-05-08T04:24:42;101054.16;;;15.65;100.00
42591;BME280;28218;53.342;-6.216;2023-05-08T04:27:13;101059.47;;;15.65;100.00
42591;BME280;28218;53.342;-6.216;2023-05-08T04:29:42;101046.19;;;15.65;100.00
42591;BME280;28218;53.342;-6.216;2023-05-08T04:32:11;101047.19;;;15.64;100.00
42591;BME280;28218;53.342;-6.216;2023-05-08T04:34:40;101046.81;;;15.67;100.00
42591;BME280;28218;53.342;-6.216;2023-05-08T04:37:08;101051.13;;;15.68;100.00
42591;BME280;28218;53.342;-6.216;2023-05-08T04:39:36;101049.28;;;15.68;100.00
42591;BME280;28218;53.342;-6.216;2023-05-08T04:42:04;101047.06;;;15.72;100.00
42591;BME280;28218;53.342;-6.216;2023-05-08T04:44:34;101041.75;;;15.72;100.00
42591;BME280;28218;53.342;-6.216;2023-05-08T04:47:02;101052.38;;;15.72;100.00
42591;BME280;28218;53.342;-6.216;2023-05-08T04:49:31;101044.56;;;15.70;100.00
42591;BME280;28218;53.342;-6.216;2023-05-08T04:51:59;101048.28;;;15.76;100.00
42591;BME280;28218;53.342;-6.216;2023-05-08T04:54:27;101046.66;;;15.75;100.00
42591;BME280;28218;53.342;-6.216;2023-05-08T04:56:56;101046.28;;;15.78;100.00
42591;BME280;28218;53.342;-6.216;2023-05-08T04:59:24;101045.47;;;15.77;100.00
42591;BME280;28218;53.342;-6.216;2023-05-08T05:01:55;101037.06;;;15.74;100.00
42591;BME280;28218;53.342;-6.216;2023-05-08T05:04:24;101048.28;;;15.76;100.00
42591;BME280;28218;53.342;-6.216;2023-05-08T05:06:52;101042.00;;;15.77;100.00
42591;BME280;28218;53.342;-6.216;2023-05-08T05:09:20;101051.59;;;15.78;100.00
42591;BME280;28218;53.342;-6.216;2023-05-08T05:11:48;101045.25;;;15.79;100.00
42591;BME280;28218;53.342;-6.216;2023-05-08T05:14:17;101045.91;;;15.81;100.00
42591;BME280;28218;53.342;-6.216;2023-05-08T05:16:45;101044.00;;;15.75;100.00
42591;BME280;28218;53.342;-6.216;2023-05-08T05:19:14;101049.97;;;15.77;100.00
42591;BME280;28218;53.342;-6.216;2023-05-08T05:21:43;101052.78;;;15.75;100.00
42591;BME280;28218;53.342;-6.216;2023-05-08T05:24:11;101051.97;;;15.75;100.00
42591;BME280;28218;53.342;-6.216;2023-05-08T05:26:39;101052.78;;;15.75;100.00
42591;BME280;28218;53.342;-6.216;2023-05-08T05:29:08;101052.38;;;15.72;100.00
42591;BME280;28218;53.342;-6.216;2023-05-08T05:31:36;101049.06;;;15.70;100.00
42591;BME280;28218;53.342;-6.216;2023-05-08T05:34:04;101051.16;;;15.74;100.00
42591;BME280;28218;53.342;-6.216;2023-05-08T05:36:34;101056.47;;;15.74;100.00
42591;BME280;28218;53.342;-6.216;2023-05-08T05:39:02;101044.44;;;15.78;100.00
42591;BME280;28218;53.342;-6.216;2023-05-08T05:41:31;101049.56;;;15.80;100.00
42591;BME280;28218;53.342;-6.216;2023-05-08T05:43:59;101043.84;;;15.83;100.00
42591;BME280;28218;53.342;-6.216;2023-05-08T05:46:28;101044.69;;;15.83;100.00
42591;BME280;28218;53.342;-6.216;2023-05-08T05:48:58;101051.81;;;15.83;100.00
42591;BME280;28218;53.342;-6.216;2023-05-08T05:51:26;101055.94;;;15.86;100.00
42591;BME280;28218;53.342;-6.216;2023-05-08T05:53:56;101062.06;;;15.86;100.00
42591;BME280;28218;53.342;-6.216;2023-05-08T05:56:24;101060.63;;;15.83;100.00
42591;BME280;28218;53.342;-6.216;2023-05-08T05:58:53;101063.28;;;15.83;100.00
42591;BME280;28218;53.342;-6.216;2023-05-08T06:01:21;101068.38;;;15.85;100.00
42591;BME280;28218;53.342;-6.216;2023-05-08T06:03:50;101064.72;;;15.86;100.00
42591;BME280;28218;53.342;-6.216;2023-05-08T06:06:18;101063.13;;;15.92;100.00
42591;BME280;28218;53.342;-6.216;2023-05-08T06:08:47;101057.84;;;15.98;100.00
42591;BME280;28218;53.342;-6.216;2023-05-08T06:11:16;101059.09;;;16.02;100.00
42591;BME280;28218;53.342;-6.216;2023-05-08T06:13:45;101051.78;;;16.04;100.00
42591;BME280;28218;53.342;-6.216;2023-05-08T06:16:16;101049.34;;;16.09;100.00
42591;BME280;28218;53.342;-6.216;2023-05-08T06:18:46;101048.94;;;16.13;100.00
42591;BME280;28218;53.342;-6.216;2023-05-08T06:21:14;101045.06;;;16.15;100.00
42591;BME280;28218;53.342;-6.216;2023-05-08T06:23:43;101048.16;;;16.19;100.00
42591;BME280;28218;53.342;-6.216;2023-05-08T06:26:11;101050.22;;;16.23;100.00
42591;BME280;28218;53.342;-6.216;2023-05-08T06:28:41;101051.28;;;16.29;100.00
42591;BME280;28218;53.342;-6.216;2023-05-08T06:31:09;101047.81;;;16.28;100.00
42591;BME280;28218;53.342;-6.216;2023-05-08T06:33:37;101052.31;;;16.34;100.00
42591;BME280;28218;53.342;-6.216;2023-05-08T06:36:06;101048.44;;;16.37;100.00
42591;BME280;28218;53.342;-6.216;2023-05-08T06:38:35;101049.44;;;16.36;100.00
42591;BME280;28218;53.342;-6.216;2023-05-08T06:41:03;101051.09;;;16.37;100.00
42591;BME280;28218;53.342;-6.216;2023-05-08T06:43:31;101049.44;;;16.36;100.00
42591;BME280;28218;53.342;-6.216;2023-05-08T06:46:01;101052.75;;;16.38;100.00
42591;BME280;28218;53.342;-6.216;2023-05-08T06:48:29;101046.19;;;16.41;100.00
42591;BME280;28218;53.342;-6.216;2023-05-08T06:50:57;101046.19;;;16.41;100.00
42591;BME280;28218;53.342;-6.216;2023-05-08T06:53:26;101037.63;;;16.45;100.00
42591;BME280;28218;53.342;-6.216;2023-05-08T06:55:54;101047.47;;;16.51;100.00
42591;BME280;28218;53.342;-6.216;2023-05-08T06:58:23;101052.38;;;16.54;100.00
42591;BME280;28218;53.342;-6.216;2023-05-08T07:00:52;101056.06;;;16.53;100.00
42591;BME280;28218;53.342;-6.216;2023-05-08T07:03:21;101048.31;;;16.52;100.00
42591;BME280;28218;53.342;-6.216;2023-05-08T07:05:49;101043.00;;;16.58;100.00
42591;BME280;28218;53.342;-6.216;2023-05-08T07:08:17;101043.44;;;16.62;100.00
42591;BME280;28218;53.342;-6.216;2023-05-08T07:10:46;101040.16;;;16.67;100.00
42591;BME280;28218;53.342;-6.216;2023-05-08T07:13:16;101042.41;;;16.70;100.00
42591;BME280;28218;53.342;-6.216;2023-05-08T07:15:47;101039.00;;;16.76;100.00
42591;BME280;28218;53.342;-6.216;2023-05-08T07:18:15;101035.91;;;16.79;100.00
42591;BME280;28218;53.342;-6.216;2023-05-08T07:20:45;101036.13;;;16.84;100.00
42591;BME280;28218;53.342;-6.216;2023-05-08T07:23:13;101037.38;;;16.88;100.00
42591;BME280;28218;53.342;-6.216;2023-05-08T07:25:42;101040.88;;;16.95;100.00
42591;BME280;28218;53.342;-6.216;2023-05-08T07:28:10;101041.91;;;17.01;100.00
42591;BME280;28218;53.342;-6.216;2023-05-08T07:30:39;101036.56;;;17.07;100.00
42591;BME280;28218;53.342;-6.216;2023-05-08T07:33:07;101030.84;;;17.10;100.00
42591;BME280;28218;53.342;-6.216;2023-05-08T07:35:38;101029.22;;;17.16;100.00
42591;BME280;28218;53.342;-6.216;2023-05-08T07:38:08;101023.47;;;17.26;100.00
42591;BME280;28218;53.342;-6.216;2023-05-08T07:40:36;101018.78;;;17.34;100.00
42591;BME280;28218;53.342;-6.216;2023-05-08T07:43:05;101018.16;;;17.39;100.00
42591;BME280;28218;53.342;-6.216;2023-05-08T07:45:34;101020.41;;;17.49;100.00
42591;BME280;28218;53.342;-6.216;2023-05-08T07:48:03;101026.34;;;17.57;100.00
42591;BME280;28218;53.342;-6.216;2023-05-08T07:50:31;101016.09;;;17.68;100.00
42591;BME280;28218;53.342;-6.216;2023-05-08T07:53:00;101024.50;;;17.78;100.00
42591;BME280;28218;53.342;-6.216;2023-05-08T07:55:29;101034.53;;;17.89;100.00
42591;BME280;28218;53.342;-6.216;2023-05-08T07:57:57;101029.63;;;17.93;100.00
42591;BME280;28218;53.342;-6.216;2023-05-08T08:00:26;101047.66;;;17.91;100.00
42591;BME280;28218;53.342;-6.216;2023-05-08T08:02:55;101046.44;;;17.86;100.00
42591;BME280;28218;53.342;-6.216;2023-05-08T08:05:24;101042.94;;;17.86;100.00
42591;BME280;28218;53.342;-6.216;2023-05-08T08:07:52;101050.31;;;17.91;100.00
42591;BME280;28218;53.342;-6.216;2023-05-08T08:10:21;101052.16;;;17.90;100.00
42591;BME280;28218;53.342;-6.216;2023-05-08T08:12:50;101041.50;;;17.90;100.00
42591;BME280;28218;53.342;-6.216;2023-05-08T08:15:19;101052.56;;;17.87;100.00
42591;BME280;28218;53.342;-6.216;2023-05-08T08:17:47;101052.38;;;17.88;100.00
42591;BME280;28218;53.342;-6.216;2023-05-08T08:20:16;101063.03;;;17.88;100.00
42591;BME280;28218;53.342;-6.216;2023-05-08T08:22:44;101053.81;;;17.84;100.00
42591;BME280;28218;53.342;-6.216;2023-05-08T08:25:12;101065.91;;;17.87;100.00
42591;BME280;28218;53.342;-6.216;2023-05-08T08:27:40;101060.78;;;17.85;100.00
42591;BME280;28218;53.342;-6.216;2023-05-08T08:30:10;101060.78;;;17.85;100.00
42591;BME280;28218;53.342;-6.216;2023-05-08T08:32:44;101061.19;;;17.82;100.00
42591;BME280;28218;53.342;-6.216;2023-05-08T08:35:13;101058.34;;;17.84;100.00
42591;BME280;28218;53.342;-6.216;2023-05-08T08:37:43;101057.50;;;17.77;100.00
42591;BME280;28218;53.342;-6.216;2023-05-08T08:40:11;101058.31;;;17.71;100.00
42591;BME280;28218;53.342;-6.216;2023-05-08T08:42:39;101061.59;;;17.73;100.00
42591;BME280;28218;53.342;-6.216;2023-05-08T08:45:08;101059.94;;;17.72;100.00
42591;BME280;28218;53.342;-6.216;2023-05-08T08:47:42;101044.56;;;17.87;100.00
42591;BME280;28218;53.342;-6.216;2023-05-08T08:50:13;101052.56;;;17.94;100.00
42591;BME280;28218;53.342;-6.216;2023-05-08T08:52:46;101052.97;;;17.97;100.00
42591;BME280;28218;53.342;-6.216;2023-05-08T08:55:17;101042.25;;;18.10;100.00
42591;BME280;28218;53.342;-6.216;2023-05-08T08:57:53;101047.97;;;18.21;100.00
42591;BME280;28218;53.342;-6.216;2023-05-08T09:00:22;101052.66;;;18.32;100.00
42591;BME280;28218;53.342;-6.216;2023-05-08T09:02:56;101041.94;;;18.45;100.00
42591;BME280;28218;53.342;-6.216;2023-05-08T09:05:24;101048.63;;;18.61;100.00
42591;BME280;28218;53.342;-6.216;2023-05-08T09:07:53;101049.03;;;18.71;100.00
42591;BME280;28218;53.342;-6.216;2023-05-08T09:10:23;101042.78;;;18.84;100.00
42591;BME280;28218;53.342;-6.216;2023-05-08T09:12:52;101048.09;;;18.90;100.00
42591;BME280;28218;53.342;-6.216;2023-05-08T09:15:20;101048.91;;;18.91;100.00
42591;BME280;28218;53.342;-6.216;2023-05-08T09:17:48;101050.56;;;18.92;100.00
42591;BME280;28218;53.342;-6.216;2023-05-08T09:20:18;101050.94;;;18.96;100.00
42591;BME280;28218;53.342;-6.216;2023-05-08T09:22:47;101053.81;;;18.94;100.00
42591;BME280;28218;53.342;-6.216;2023-05-08T09:25:16;101049.75;;;18.92;100.00
42591;BME280;28218;53.342;-6.216;2023-05-08T09:27:44;101047.84;;;18.99;100.00
42591;BME280;28218;53.342;-6.216;2023-05-08T09:30:13;101054.78;;;19.06;100.00
42591;BME280;28218;53.342;-6.216;2023-05-08T09:32:42;101051.41;;;19.18;100.00
42591;BME280;28218;53.342;-6.216;2023-05-08T09:35:11;101053.84;;;19.19;100.00
42591;BME280;28218;53.342;-6.216;2023-05-08T09:37:42;101062.91;;;19.18;100.00
42591;BME280;28218;53.342;-6.216;2023-05-08T09:40:17;101066.06;;;19.08;100.00
42591;BME280;28218;53.342;-6.216;2023-05-08T09:42:48;101064.66;;;19.06;100.00
42591;BME280;28218;53.342;-6.216;2023-05-08T09:45:27;101078.81;;;19.06;100.00
42591;BME280;28218;53.342;-6.216;2023-05-08T09:47:56;101073.84;;;19.10;100.00
42591;BME280;28218;53.342;-6.216;2023-05-08T09:50:24;101075.50;;;19.11;100.00
42591;BME280;28218;53.342;-6.216;2023-05-08T09:52:55;101075.69;;;19.09;100.00
42591;BME280;28218;53.342;-6.216;2023-05-08T09:55:23;101075.97;;;19.01;100.00
42591;BME280;28218;53.342;-6.216;2023-05-08T09:57:53;101073.13;;;18.96;100.00
42591;BME280;28218;53.342;-6.216;2023-05-08T10:00:22;101084.47;;;18.85;100.00
42591;BME280;28218;53.342;-6.216;2023-05-08T10:02:56;101083.72;;;18.71;100.00
42591;BME280;28218;53.342;-6.216;2023-05-08T10:05:26;101091.56;;;18.53;100.00
42591;BME280;28218;53.342;-6.216;2023-05-08T10:07:58;101096.75;;;18.34;100.00
42591;BME280;28218;53.342;-6.216;2023-05-08T10:10:28;101092.31;;;18.22;100.00
42591;BME280;28218;53.342;-6.216;2023-05-08T10:12:57;101095.19;;;18.13;100.00
42591;BME280;28218;53.342;-6.216;2023-05-08T10:15:28;101098.69;;;18.07;100.00
42591;BME280;28218;53.342;-6.216;2023-05-08T10:18:01;101088.63;;;18.09;100.00
42591;BME280;28218;53.342;-6.216;2023-05-08T10:20:31;101087.56;;;18.24;100.00
42591;BME280;28218;53.342;-6.216;2023-05-08T10:23:03;101079.72;;;18.42;100.00
42591;BME280;28218;53.342;-6.216;2023-05-08T10:25:33;101078.41;;;18.64;100.00
42591;BME280;28218;53.342;-6.216;2023-05-08T10:28:11;101080.81;;;18.79;100.00
42591;BME280;28218;53.342;-6.216;2023-05-08T10:30:43;101071.44;;;19.02;100.00
42591;BME280;28218;53.342;-6.216;2023-05-08T10:33:19;101072.53;;;19.19;100.00
42591;BME280;28218;53.342;-6.216;2023-05-08T10:35:47;101071.25;;;19.28;100.00
42591;BME280;28218;53.342;-6.216;2023-05-08T10:38:18;101061.56;;;19.34;100.00
42591;BME280;28218;53.342;-6.216;2023-05-08T10:40:47;101074.28;;;19.38;100.00
42591;BME280;28218;53.342;-6.216;2023-05-08T10:43:16;101076.06;;;19.45;100.00
42591;BME280;28218;53.342;-6.216;2023-05-08T10:45:45;101084.25;;;19.50;100.00
42591;BME280;28218;53.342;-6.216;2023-05-08T10:48:20;101084.91;;;19.45;100.00
42591;BME280;28218;53.342;-6.216;2023-05-08T10:50:58;101082.06;;;19.40;100.00
42591;BME280;28218;53.342;-6.216;2023-05-08T10:53:37;101092.19;;;19.31;100.00
42591;BME280;28218;53.342;-6.216;2023-05-08T10:56:07;101096.81;;;19.18;100.00
42591;BME280;28218;53.342;-6.216;2023-05-08T10:58:36;101092.69;;;19.22;100.00
42591;BME280;28218;53.342;-6.216;2023-05-08T11:01:13;101097.75;;;19.30;100.00
42591;BME280;28218;53.342;-6.216;2023-05-08T11:03:44;101104.03;;;19.42;100.00
42591;BME280;28218;53.342;-6.216;2023-05-08T11:06:13;101107.50;;;19.49;100.00
42591;BME280;28218;53.342;-6.216;2023-05-08T11:08:50;101106.06;;;19.47;100.00
42591;BME280;28218;53.342;-6.216;2023-05-08T11:11:26;101108.78;;;19.40;100.00
42591;BME280;28218;53.342;-6.216;2023-05-08T11:14:01;101101.19;;;19.37;100.00
42591;BME280;28218;53.342;-6.216;2023-05-08T11:17:05;101106.59;;;19.55;100.00
42591;BME280;28218;53.342;-6.216;2023-05-08T11:19:35;101109.44;;;19.85;100.00
42591;BME280;28218;53.342;-6.216;2023-05-08T11:22:14;101102.75;;;20.20;100.00
42591;BME280;28218;53.342;-6.216;2023-05-08T11:24:51;101103.28;;;20.28;100.00
42591;BME280;28218;53.342;-6.216;2023-05-08T11:27:31;101107.44;;;20.24;100.00
42591;BME280;28218;53.342;-6.216;2023-05-08T11:30:24;101098.13;;;20.27;100.00
42591;BME280;28218;53.342;-6.216;2023-05-08T11:33:27;101098.38;;;20.25;100.00
42591;BME280;28218;53.342;-6.216;2023-05-08T11:35:57;101093.16;;;20.30;100.00
42591;BME280;28218;53.342;-6.216;2023-05-08T11:38:31;101091.81;;;20.39;100.00
42591;BME280;28218;53.342;-6.216;2023-05-08T11:41:07;101088.09;;;20.40;100.00
42591;BME280;28218;53.342;-6.216;2023-05-08T11:44:08;101086.63;;;20.45;100.00
42591;BME280;28218;53.342;-6.216;2023-05-08T11:46:43;101089.41;;;20.56;100.00
42591;BME280;28218;53.342;-6.216;2023-05-08T11:49:18;101086.75;;;20.68;100.00
42591;BME280;28218;53.342;-6.216;2023-05-08T11:51:53;101080.88;;;20.78;100.00
42591;BME280;28218;53.342;-6.216;2023-05-08T11:54:24;101082.06;;;20.82;100.00
42591;BME280;28218;53.342;-6.216;2023-05-08T11:56:57;101086.34;;;20.83;100.00
42591;BME280;28218;53.342;-6.216;2023-05-08T11:59:25;101091.16;;;20.92;100.00
42591;BME280;28218;53.342;-6.216;2023-05-08T12:01:53;101103.97;;;20.90;100.00
42591;BME280;28218;53.342;-6.216;2023-05-08T12:04:42;101107.19;;;20.81;100.00
42591;BME280;28218;53.342;-6.216;2023-05-08T12:07:11;101105.66;;;20.73;100.00
42591;BME280;28218;53.342;-6.216;2023-05-08T12:09:39;101107.00;;;20.64;100.00
42591;BME280;28218;53.342;-6.216;2023-05-08T12:12:09;101115.19;;;20.51;100.00
42591;BME280;28218;53.342;-6.216;2023-05-08T12:14:37;101118.09;;;20.49;100.00
42591;BME280;28218;53.342;-6.216;2023-05-08T12:17:06;101109.16;;;20.55;100.00
42591;BME280;28218;53.342;-6.216;2023-05-08T12:19:34;101106.94;;;20.71;100.00
42591;BME280;28218;53.342;-6.216;2023-05-08T12:22:02;101116.72;;;20.77;100.00
42591;BME280;28218;53.342;-6.216;2023-05-08T12:24:31;101126.69;;;20.70;100.00
42591;BME280;28218;53.342;-6.216;2023-05-08T12:26:59;101119.19;;;20.60;100.00
42591;BME280;28218;53.342;-6.216;2023-05-08T12:29:29;101130.47;;;20.43;100.00
42591;BME280;28218;53.342;-6.216;2023-05-08T12:31:57;101128.13;;;20.54;100.00
42591;BME280;28218;53.342;-6.216;2023-05-08T12:34:26;101112.69;;;20.86;100.00
42591;BME280;28218;53.342;-6.216;2023-05-08T12:37:01;101114.28;;;21.05;100.00
42591;BME280;28218;53.342;-6.216;2023-05-08T12:39:34;101101.34;;;21.32;100.00
42591;BME280;28218;53.342;-6.216;2023-05-08T12:42:03;101101.16;;;21.57;100.00
42591;BME280;28218;53.342;-6.216;2023-05-08T12:44:33;101093.69;;;21.83;100.00
42591;BME280;28218;53.342;-6.216;2023-05-08T12:47:04;101100.78;;;22.01;100.00
42591;BME280;28218;53.342;-6.216;2023-05-08T12:49:32;101103.63;;;22.17;100.00
42591;BME280;28218;53.342;-6.216;2023-05-08T12:52:02;101098.47;;;22.28;100.00
42591;BME280;28218;53.342;-6.216;2023-05-08T12:54:31;101105.78;;;22.44;100.00